createdAt,value
2018-06-14T00:01:23.813Z,16.70
2018-06-14T00:03:52.295Z,16.70
2018-06-14T00:06:20.685Z,16.60
2018-06-14T00:08:49.133Z,16.60
2018-06-14T00:11:17.541Z,16.60
2018-06-14T00:13:45.894Z,16.60
2018-06-14T00:16:14.482Z,16.60
2018-06-14T00:18:42.976Z,16.50
2018-06-14T00:21:11.373Z,16.60
2018-06-14T00:23:39.848Z,16.50
2018-06-14T00:26:08.333Z,16.50
2018-06-14T00:28:36.712Z,16.50
2018-06-14T00:31:05.108Z,16.50
2018-06-14T00:33:33.520Z,16.40
2018-06-14T00:36:01.921Z,16.50
2018-06-14T00:38:30.356Z,16.40
2018-06-14T00:40:58.845Z,16.40
2018-06-14T00:43:27.265Z,16.40
2018-06-14T00:45:55.623Z,16.40
2018-06-14T00:48:24.136Z,16.30
2018-06-14T00:50:52.625Z,16.30
2018-06-14T00:53:21.271Z,16.30
2018-06-14T00:55:49.748Z,16.30
2018-06-14T00:58:18.228Z,16.20
2018-06-14T01:00:46.649Z,16.20
2018-06-14T01:03:15.053Z,16.20
2018-06-14T01:05:43.585Z,16.20
2018-06-14T01:08:12.066Z,16.20
2018-06-14T01:10:40.448Z,16.20
2018-06-14T01:13:08.883Z,16.20
2018-06-14T01:15:37.277Z,16.20
2018-06-14T01:18:05.854Z,16.10
2018-06-14T01:20:34.348Z,16.10
2018-06-14T01:23:02.833Z,16.10
2018-06-14T01:25:31.414Z,16.10
2018-06-14T01:27:59.877Z,16.00
2018-06-14T01:30:28.283Z,16.00
2018-06-14T01:32:56.671Z,15.90
2018-06-14T01:35:25.061Z,15.90
2018-06-14T01:40:27.269Z,15.90
2018-06-14T01:42:55.693Z,15.90
2018-06-14T01:45:24.148Z,15.90
2018-06-14T01:47:52.618Z,15.90
2018-06-14T01:50:20.986Z,15.90
2018-06-14T01:52:49.404Z,15.90
2018-06-14T01:55:17.866Z,15.90
2018-06-14T01:57:46.276Z,15.90
2018-06-14T02:00:14.658Z,15.90
2018-06-14T02:02:43.226Z,15.90
2018-06-14T02:05:11.601Z,15.90
2018-06-14T02:10:08.104Z,15.90
2018-06-14T02:12:36.597Z,15.90
2018-06-14T02:15:05.125Z,15.90
2018-06-14T02:17:33.548Z,15.90
2018-06-14T02:20:01.890Z,15.90
2018-06-14T02:22:30.267Z,15.90
2018-06-14T02:24:58.786Z,15.80
2018-06-14T02:27:27.366Z,15.90
2018-06-14T02:29:55.725Z,15.80
2018-06-14T02:32:24.182Z,15.80
2018-06-14T02:34:52.778Z,15.80
2018-06-14T02:37:21.409Z,15.80
2018-06-14T02:39:49.750Z,15.90
2018-06-14T02:42:18.804Z,15.90
2018-06-14T02:44:47.318Z,15.90
2018-06-14T02:47:15.761Z,15.80
2018-06-14T02:49:44.190Z,15.80
2018-06-14T02:52:12.536Z,15.80
2018-06-14T02:54:40.924Z,15.80
2018-06-14T02:57:09.411Z,15.80
2018-06-14T02:59:37.854Z,15.80
2018-06-14T03:02:06.231Z,15.80
2018-06-14T03:04:34.752Z,15.80
2018-06-14T03:07:03.214Z,15.80
2018-06-14T03:09:31.620Z,15.80
2018-06-14T03:12:00.159Z,15.80
2018-06-14T03:14:28.524Z,15.80
2018-06-14T03:16:56.922Z,15.80
2018-06-14T03:19:25.272Z,15.80
2018-06-14T03:21:53.678Z,15.80
2018-06-14T03:24:22.076Z,15.80
2018-06-14T03:26:50.580Z,15.70
2018-06-14T03:29:18.981Z,15.70
2018-06-14T03:31:47.356Z,15.70
2018-06-14T03:34:15.865Z,15.70
2018-06-14T03:36:44.296Z,15.70
2018-06-14T03:39:12.659Z,15.70
2018-06-14T03:41:41.108Z,15.70
2018-06-14T03:44:09.521Z,15.70
2018-06-14T03:46:37.923Z,15.70
2018-06-14T03:49:06.332Z,15.70
2018-06-14T03:51:34.640Z,15.70
2018-06-14T03:54:03.099Z,15.80
2018-06-14T03:56:31.408Z,15.80
2018-06-14T04:01:27.860Z,15.80
2018-06-14T04:03:56.381Z,15.90
2018-06-14T04:06:24.968Z,15.90
2018-06-14T04:08:53.456Z,15.90
2018-06-14T04:11:21.845Z,15.90
2018-06-14T04:13:50.645Z,15.90
2018-06-14T04:16:19.564Z,15.90
2018-06-14T04:18:48.061Z,16.00
2018-06-14T04:21:16.652Z,16.00
2018-06-14T04:26:17.851Z,16.00
2018-06-14T04:28:46.227Z,16.00
2018-06-14T04:31:14.594Z,16.10
2018-06-14T04:33:42.967Z,16.00
2018-06-14T04:36:11.365Z,16.00
2018-06-14T04:38:39.856Z,16.00
2018-06-14T04:41:08.316Z,16.00
2018-06-14T04:43:36.624Z,16.00
2018-06-14T04:46:05.057Z,16.00
2018-06-14T04:48:33.454Z,16.00
2018-06-14T04:51:01.853Z,16.00
2018-06-14T04:53:30.274Z,16.00
2018-06-14T04:55:58.614Z,16.00
2018-06-14T04:58:28.017Z,16.00
2018-06-14T05:00:56.507Z,16.00
2018-06-14T05:03:25.025Z,16.00
2018-06-14T05:05:53.446Z,16.10
2018-06-14T05:08:23.824Z,16.00
2018-06-14T05:10:53.276Z,16.00
2018-06-14T05:13:21.692Z,16.00
2018-06-14T05:18:20.901Z,16.00
2018-06-14T05:20:50.032Z,16.10
2018-06-14T05:23:18.513Z,16.10
2018-06-14T05:25:47.270Z,16.10
2018-06-14T05:28:15.664Z,16.00
2018-06-14T05:30:44.913Z,16.00
2018-06-14T05:33:14.894Z,16.10
2018-06-14T05:35:43.308Z,16.10
2018-06-14T05:38:11.703Z,16.20
2018-06-14T05:40:40.144Z,16.20
2018-06-14T05:43:08.721Z,16.20
2018-06-14T05:45:37.700Z,16.20
2018-06-14T05:48:06.160Z,16.30
2018-06-14T05:50:34.514Z,16.30
2018-06-14T05:53:02.922Z,16.40
2018-06-14T05:55:31.321Z,16.40
2018-06-14T05:57:59.680Z,16.40
2018-06-14T06:00:28.037Z,16.40
2018-06-14T06:02:56.432Z,16.50
2018-06-14T06:05:24.790Z,16.40
2018-06-14T06:07:53.213Z,16.50
2018-06-14T06:10:21.649Z,16.50
2018-06-14T06:12:50.020Z,16.50
2018-06-14T06:15:18.378Z,16.60
2018-06-14T06:17:46.833Z,16.60
2018-06-14T06:20:17.689Z,16.60
2018-06-14T06:22:46.904Z,16.70
2018-06-14T06:25:15.366Z,16.70
2018-06-14T06:27:43.721Z,16.70
2018-06-14T06:30:13.566Z,16.80
2018-06-14T06:32:41.990Z,16.80
2018-06-14T06:35:10.430Z,16.80
2018-06-14T06:37:39.165Z,16.90
2018-06-14T06:40:07.540Z,16.90
2018-06-14T06:42:36.233Z,16.90
2018-06-14T06:45:05.932Z,16.90
2018-06-14T06:47:34.294Z,17.00
2018-06-14T06:50:04.045Z,17.00
2018-06-14T06:52:32.972Z,17.00
2018-06-14T06:55:01.485Z,17.10
2018-06-14T06:57:29.920Z,17.10
2018-06-14T06:59:59.697Z,17.20
2018-06-14T07:02:28.069Z,17.20
2018-06-14T07:04:56.432Z,17.20
2018-06-14T07:07:25.202Z,17.20
2018-06-14T07:09:53.672Z,17.30
2018-06-14T07:12:22.323Z,17.30
2018-06-14T07:14:50.707Z,17.30
2018-06-14T07:17:19.507Z,17.40
2018-06-14T07:19:48.898Z,17.40
2018-06-14T07:22:18.519Z,17.40
2018-06-14T07:24:47.359Z,17.50
2018-06-14T07:27:17.015Z,17.50
2018-06-14T07:29:45.488Z,17.50
2018-06-14T07:32:13.938Z,17.50
2018-06-14T07:34:42.337Z,17.60
2018-06-14T07:37:12.949Z,17.70
2018-06-14T07:39:41.316Z,17.70
2018-06-14T07:42:09.665Z,17.70
2018-06-14T07:44:40.448Z,17.80
2018-06-14T07:47:09.750Z,17.80
2018-06-14T07:49:38.672Z,17.80
2018-06-14T07:52:08.345Z,17.80
2018-06-14T07:54:37.460Z,17.80
2018-06-14T07:57:06.560Z,17.80
2018-06-14T07:59:35.770Z,17.80
2018-06-14T08:02:04.372Z,17.90
2018-06-14T08:04:32.830Z,18.00
2018-06-14T08:07:02.576Z,18.00
2018-06-14T08:09:30.965Z,18.00
2018-06-14T08:11:59.461Z,18.00
2018-06-14T08:14:27.936Z,18.10
2018-06-14T08:16:56.260Z,18.20
2018-06-14T08:19:24.682Z,18.20
2018-06-14T08:21:53.019Z,18.30
2018-06-14T08:24:22.376Z,18.30
2018-06-14T08:26:52.800Z,18.40
2018-06-14T08:29:22.076Z,18.50
2018-06-14T08:31:50.468Z,18.50
2018-06-14T08:34:18.919Z,18.50
2018-06-14T08:36:48.912Z,18.60
2018-06-14T08:39:18.172Z,18.70
2018-06-14T08:41:46.545Z,18.70
2018-06-14T08:44:14.920Z,18.70
2018-06-14T08:46:43.719Z,18.70
2018-06-14T08:49:12.194Z,18.80
2018-06-14T08:51:40.604Z,18.90
2018-06-14T08:54:09.112Z,18.90
2018-06-14T08:56:37.560Z,19.00
2018-06-14T08:59:05.992Z,19.00
2018-06-14T09:01:34.472Z,19.00
2018-06-14T09:04:02.844Z,19.00
2018-06-14T09:06:31.384Z,19.10
2018-06-14T09:09:00.297Z,19.20
2018-06-14T09:11:28.785Z,19.20
2018-06-14T09:13:57.148Z,19.30
2018-06-14T09:16:25.606Z,19.30
2018-06-14T09:18:54.200Z,19.40
2018-06-14T09:21:22.900Z,19.40
2018-06-14T09:23:51.434Z,19.50
2018-06-14T09:26:20.255Z,19.60
2018-06-14T09:28:49.074Z,19.60
2018-06-14T09:31:17.416Z,19.70
2018-06-14T09:33:45.871Z,19.70
2018-06-14T09:36:14.293Z,19.90
2018-06-14T09:38:42.652Z,20.00
2018-06-14T09:41:11.120Z,20.00
2018-06-14T09:43:39.522Z,20.10
2018-06-14T09:46:07.873Z,20.00
2018-06-14T09:48:36.250Z,20.00
2018-06-14T09:51:04.874Z,20.00
2018-06-14T09:53:33.313Z,20.00
2018-06-14T09:56:01.797Z,20.00
2018-06-14T09:58:32.555Z,20.10
2018-06-14T10:01:01.013Z,20.20
2018-06-14T10:03:29.386Z,20.20
2018-06-14T10:05:58.016Z,20.30
2018-06-14T10:08:26.549Z,20.40
2018-06-14T10:10:55.191Z,20.40
2018-06-14T10:13:23.641Z,20.40
2018-06-14T10:15:52.016Z,20.40
2018-06-14T10:18:20.460Z,20.40
2018-06-14T10:20:49.107Z,20.30
2018-06-14T10:23:17.482Z,20.30
2018-06-14T10:25:46.040Z,20.30
2018-06-14T10:28:14.805Z,20.30
2018-06-14T10:30:43.384Z,20.40
2018-06-14T10:33:11.765Z,20.40
2018-06-14T10:35:40.494Z,20.40
2018-06-14T10:38:08.942Z,20.40
2018-06-14T10:40:37.361Z,20.50
2018-06-14T10:43:06.722Z,20.60
2018-06-14T10:45:35.264Z,20.80
2018-06-14T10:48:03.662Z,20.90
2018-06-14T10:50:32.099Z,21.10
2018-06-14T10:53:00.586Z,21.30
2018-06-14T10:55:31.916Z,21.60
2018-06-14T10:58:00.364Z,21.80
2018-06-14T11:00:28.820Z,21.90
2018-06-14T11:02:57.216Z,21.90
2018-06-14T11:05:25.588Z,22.00
2018-06-14T11:07:54.007Z,22.10
2018-06-14T11:10:22.376Z,22.20
2018-06-14T11:12:51.901Z,22.30
2018-06-14T11:15:20.476Z,22.30
2018-06-14T11:17:48.982Z,22.40
2018-06-14T11:20:17.488Z,22.40
2018-06-14T11:22:45.860Z,22.30
2018-06-14T11:25:14.233Z,22.30
2018-06-14T11:27:42.657Z,22.40
2018-06-14T11:30:18.953Z,22.50
2018-06-14T11:32:47.707Z,22.70
2018-06-14T11:35:20.948Z,22.80
2018-06-14T11:37:49.377Z,22.80
2018-06-14T11:40:20.004Z,22.80
2018-06-14T11:42:50.532Z,22.80
2018-06-14T11:45:19.076Z,22.80
2018-06-14T11:47:50.524Z,22.70
2018-06-14T11:50:19.110Z,22.60
2018-06-14T11:52:47.506Z,22.60
2018-06-14T11:55:16.058Z,22.50
2018-06-14T11:57:44.484Z,22.50
2018-06-14T12:00:12.807Z,22.50
2018-06-14T12:02:41.175Z,22.40
2018-06-14T12:05:09.627Z,22.40
2018-06-14T12:07:39.149Z,22.40
2018-06-14T12:10:14.547Z,22.40
2018-06-14T12:12:52.606Z,22.40
2018-06-14T12:15:28.113Z,22.40
2018-06-14T12:18:02.285Z,22.30
2018-06-14T12:20:34.448Z,22.40
2018-06-14T12:23:03.046Z,22.40
2018-06-14T12:25:31.483Z,22.30
2018-06-14T12:28:00.208Z,22.40
2018-06-14T12:39:03.454Z,22.90
2018-06-14T12:44:13.089Z,22.90
2018-06-14T12:46:41.671Z,23.00
2018-06-14T12:49:14.328Z,23.00
2018-06-14T12:51:42.679Z,23.00
2018-06-14T12:54:11.100Z,22.90
2018-06-14T12:56:39.413Z,22.90
2018-06-14T12:59:08.052Z,22.90
2018-06-14T13:01:36.636Z,22.80
2018-06-14T13:04:05.064Z,22.80
2018-06-14T13:06:33.593Z,22.80
2018-06-14T13:09:02.678Z,22.80
2018-06-14T13:11:31.140Z,22.80
2018-06-14T13:13:59.738Z,22.80
2018-06-14T13:16:30.788Z,22.80
2018-06-14T13:19:01.687Z,22.70
2018-06-14T13:21:33.603Z,22.60
2018-06-14T13:24:07.296Z,22.60
2018-06-14T13:26:37.674Z,22.60
2018-06-14T13:29:06.144Z,22.60
2018-06-14T13:31:44.285Z,22.70
2018-06-14T13:34:12.721Z,22.70
2018-06-14T13:36:41.121Z,22.70
2018-06-14T13:39:10.496Z,22.60
2018-06-14T13:41:39.301Z,22.60
2018-06-14T13:44:07.704Z,22.50
2018-06-14T13:46:39.821Z,22.50
2018-06-14T13:49:08.647Z,22.40
2018-06-14T13:51:36.996Z,22.40
2018-06-14T13:54:05.548Z,22.40
2018-06-14T13:56:33.969Z,22.40
2018-06-14T13:59:02.463Z,22.40
2018-06-14T14:01:30.987Z,22.40
2018-06-14T14:03:59.626Z,22.30
2018-06-14T14:06:31.825Z,22.30
2018-06-14T14:09:01.109Z,22.20
2018-06-14T14:11:29.502Z,22.20
2018-06-14T14:13:57.868Z,22.10
2018-06-14T14:16:26.333Z,22.00
2018-06-14T14:18:54.733Z,21.90
2018-06-14T14:21:24.031Z,21.80
2018-06-14T14:23:52.675Z,21.80
2018-06-14T14:26:22.046Z,21.70
2018-06-14T14:28:51.209Z,21.70
2018-06-14T14:31:20.568Z,21.60
2018-06-14T14:36:18.637Z,21.40
2018-06-14T14:38:49.043Z,21.30
2018-06-14T14:41:19.177Z,21.20
2018-06-14T14:43:48.522Z,21.20
2018-06-14T14:46:16.899Z,21.10
2018-06-14T14:48:45.468Z,21.00
2018-06-14T14:51:14.894Z,21.00
2018-06-14T14:53:43.495Z,20.90
2018-06-14T14:56:12.665Z,20.90
2018-06-14T14:58:41.933Z,20.90
2018-06-14T15:01:10.436Z,20.90
2018-06-14T15:03:39.340Z,20.80
2018-06-14T15:06:07.789Z,20.80
2018-06-14T15:08:36.121Z,20.80
2018-06-14T15:11:04.797Z,20.80
2018-06-14T15:13:33.227Z,20.70
2018-06-14T15:16:01.580Z,20.70
2018-06-14T15:18:30.135Z,20.60
2018-06-14T15:20:58.504Z,20.60
2018-06-14T15:23:26.962Z,20.50
2018-06-14T15:25:55.396Z,20.50
2018-06-14T15:28:23.929Z,20.50
2018-06-14T15:30:52.301Z,20.40
2018-06-14T15:33:20.820Z,20.40
2018-06-14T15:35:49.284Z,20.40
2018-06-14T15:38:17.602Z,20.40
2018-06-14T15:40:45.979Z,20.40
2018-06-14T15:43:14.540Z,20.40
2018-06-14T15:45:43.109Z,20.30
2018-06-14T15:48:11.651Z,20.30
2018-06-14T15:50:40.157Z,20.20
2018-06-14T15:53:08.641Z,20.20
2018-06-14T15:56:00.571Z,20.20
2018-06-14T15:58:29.734Z,20.10
2018-06-14T16:00:58.303Z,20.10
2018-06-14T16:03:27.473Z,20.10
2018-06-14T16:05:55.862Z,20.10
2018-06-14T16:08:24.281Z,20.00
2018-06-14T16:13:37.733Z,19.90
2018-06-14T16:16:08.312Z,19.70
2018-06-14T16:18:37.183Z,19.70
2018-06-14T16:21:05.724Z,19.70
2018-06-14T16:23:34.165Z,19.60
2018-06-14T16:26:05.182Z,19.50
2018-06-14T16:28:33.628Z,19.50
2018-06-14T16:31:02.132Z,19.40
2018-06-14T16:33:30.875Z,19.40
2018-06-14T16:35:59.626Z,19.40
2018-06-14T16:38:28.191Z,19.40
2018-06-14T16:40:56.666Z,19.40
2018-06-14T16:43:25.182Z,19.40
2018-06-14T16:45:53.766Z,19.50
2018-06-14T16:48:23.905Z,19.50
2018-06-14T16:50:52.608Z,19.50
2018-06-14T16:53:20.986Z,19.40
2018-06-14T16:55:53.612Z,19.40
2018-06-14T16:58:23.052Z,19.40
2018-06-14T17:00:51.643Z,19.30
2018-06-14T17:03:20.000Z,19.30
2018-06-14T17:05:48.432Z,19.30
2018-06-14T17:08:20.007Z,19.30
2018-06-14T17:10:48.398Z,19.30
2018-06-14T17:13:16.773Z,19.20
2018-06-14T17:15:45.485Z,19.20
2018-06-14T17:18:13.934Z,19.20
2018-06-14T17:20:42.354Z,19.20
2018-06-14T17:23:10.806Z,19.10
2018-06-14T17:25:39.169Z,19.10
2018-06-14T17:28:08.775Z,19.20
2018-06-14T17:30:37.237Z,19.10
2018-06-14T17:33:05.630Z,19.10
2018-06-14T17:35:36.593Z,19.10
2018-06-14T17:38:05.146Z,19.10
2018-06-14T17:40:33.713Z,19.10
2018-06-14T17:43:02.258Z,19.10
2018-06-14T17:45:30.787Z,19.10
2018-06-14T17:47:59.327Z,19.10
2018-06-14T17:50:27.867Z,19.20
2018-06-14T17:52:56.497Z,19.20
2018-06-14T18:00:21.368Z,19.10
2018-06-14T18:02:49.811Z,19.10
2018-06-14T18:05:18.236Z,19.10
2018-06-14T18:07:46.725Z,19.10
2018-06-14T18:10:15.148Z,19.10
2018-06-14T18:12:43.662Z,19.10
2018-06-14T18:15:12.141Z,19.10
2018-06-14T18:17:40.635Z,19.10
2018-06-14T18:20:09.345Z,19.00
2018-06-14T18:22:37.806Z,19.00
2018-06-14T18:25:06.215Z,19.00
2018-06-14T18:30:03.104Z,19.10
2018-06-14T18:35:00.728Z,19.10
2018-06-14T18:37:29.383Z,19.10
2018-06-14T18:39:57.933Z,19.10
2018-06-14T18:42:26.441Z,19.10
2018-06-14T18:44:55.738Z,19.10
2018-06-14T18:47:24.247Z,19.10
2018-06-14T18:49:52.812Z,19.10
2018-06-14T18:52:21.340Z,19.10
2018-06-14T18:54:49.991Z,19.10
2018-06-14T18:57:18.644Z,19.00
2018-06-14T18:59:47.137Z,19.00
2018-06-14T19:02:15.709Z,19.00
2018-06-14T19:04:44.165Z,18.90
2018-06-14T19:07:12.827Z,18.90
2018-06-14T19:09:41.316Z,19.00
2018-06-14T19:12:09.825Z,18.90
2018-06-14T19:14:38.938Z,18.90
2018-06-14T19:17:07.597Z,18.90
2018-06-14T19:19:36.125Z,18.90
2018-06-14T19:22:04.727Z,18.80
2018-06-14T19:24:33.220Z,18.80
2018-06-14T19:27:01.793Z,18.80
2018-06-14T19:29:30.443Z,18.90
2018-06-14T19:31:59.330Z,18.90
2018-06-14T19:34:27.807Z,18.90
2018-06-14T19:36:56.349Z,18.90
2018-06-14T19:39:24.890Z,18.80
2018-06-14T19:41:53.421Z,18.80
2018-06-14T19:44:22.076Z,18.70
2018-06-14T19:46:50.504Z,18.60
2018-06-14T19:49:23.319Z,18.60
2018-06-14T19:51:51.984Z,18.50
2018-06-14T19:54:20.549Z,18.50
2018-06-14T19:56:49.119Z,18.50
2018-06-14T20:01:45.855Z,18.40
2018-06-14T20:04:18.100Z,18.40
2018-06-14T20:06:47.776Z,18.40
2018-06-14T20:09:16.236Z,18.30
2018-06-14T20:11:44.637Z,18.30
2018-06-14T20:14:13.126Z,18.30
2018-06-14T20:16:41.589Z,18.30
2018-06-14T20:19:10.211Z,18.30
2018-06-14T20:21:38.722Z,18.20
2018-06-14T20:24:07.253Z,18.20
2018-06-14T20:26:36.002Z,18.20
2018-06-14T20:29:04.381Z,18.20
2018-06-14T20:31:32.986Z,18.20
2018-06-14T20:34:01.630Z,18.20
2018-06-14T20:36:30.050Z,18.20
2018-06-14T20:41:26.804Z,18.20
2018-06-14T20:43:55.375Z,18.20
2018-06-14T20:46:23.900Z,18.20
2018-06-14T20:48:52.353Z,18.20
2018-06-14T20:51:21.255Z,18.30
2018-06-14T20:53:50.749Z,18.30
2018-06-14T20:56:20.272Z,18.30
2018-06-14T21:01:16.866Z,18.30
2018-06-14T21:03:45.389Z,18.30
2018-06-14T21:06:13.905Z,18.30
2018-06-14T21:08:42.405Z,18.30
2018-06-14T21:11:10.808Z,18.30
2018-06-14T21:13:39.308Z,18.30
2018-06-14T21:16:07.719Z,18.30
2018-06-14T21:18:36.204Z,18.30
2018-06-14T21:23:33.148Z,18.30
2018-06-14T21:26:01.861Z,18.30
2018-06-14T21:28:32.015Z,18.30
2018-06-14T21:31:00.508Z,18.30
2018-06-14T21:33:28.925Z,18.30
2018-06-14T21:35:57.296Z,18.30
2018-06-14T21:38:25.676Z,18.30
2018-06-14T21:40:54.021Z,18.30
2018-06-14T21:43:22.477Z,18.20
2018-06-14T21:45:51.045Z,18.20
2018-06-14T21:48:19.516Z,18.20
2018-06-14T21:50:47.957Z,18.20
2018-06-14T21:53:16.281Z,18.20
2018-06-14T21:55:46.386Z,18.20
2018-06-14T21:58:14.825Z,18.20
2018-06-14T22:00:43.198Z,18.20
2018-06-14T22:03:17.134Z,18.20
2018-06-14T22:05:45.557Z,18.20
2018-06-14T22:08:13.896Z,18.20
2018-06-14T22:10:42.328Z,18.10
2018-06-14T22:13:10.688Z,18.10
2018-06-14T22:15:39.345Z,18.10
2018-06-14T22:18:07.745Z,18.10
2018-06-14T22:20:36.153Z,18.20
2018-06-14T22:23:04.484Z,18.10
2018-06-14T22:25:33.031Z,18.10
2018-06-14T22:28:01.524Z,18.10
2018-06-14T22:30:29.865Z,18.10
2018-06-14T22:33:09.564Z,18.10
2018-06-14T22:35:38.005Z,18.10
2018-06-14T22:38:06.418Z,18.20
2018-06-14T22:40:34.850Z,18.10
2018-06-14T22:43:03.184Z,18.10
2018-06-14T22:45:31.659Z,18.10
2018-06-14T22:48:00.029Z,18.20
2018-06-14T22:50:39.796Z,18.10
2018-06-14T22:53:09.425Z,18.10
2018-06-14T22:55:37.898Z,18.10
2018-06-14T22:58:06.248Z,18.10
2018-06-14T23:01:48.556Z,18.10
2018-06-14T23:04:22.209Z,18.10
2018-06-14T23:06:50.676Z,18.10
2018-06-14T23:10:29.982Z,18.10
2018-06-14T23:12:58.465Z,18.10
2018-06-14T23:15:26.905Z,18.10
2018-06-14T23:17:55.478Z,18.10
2018-06-14T23:20:24.868Z,18.10
2018-06-14T23:22:54.398Z,18.10
2018-06-14T23:25:23.726Z,18.10
2018-06-14T23:27:52.233Z,18.10
2018-06-14T23:30:20.625Z,18.10
2018-06-14T23:32:49.131Z,18.10
2018-06-14T23:35:18.104Z,18.00
2018-06-14T23:37:46.684Z,18.00
2018-06-14T23:40:15.186Z,18.00
2018-06-14T23:42:43.637Z,18.00
2018-06-14T23:45:12.068Z,18.00
2018-06-14T23:47:40.464Z,18.00
2018-06-14T23:50:08.852Z,18.00
2018-06-14T23:52:37.307Z,18.00
2018-06-14T23:55:05.770Z,18.00
2018-06-14T23:57:34.174Z,18.00
